KSQL

Details ICAO KSQL (SQL)
Name San Carlos
Region United States
Timezone America/Los_Angeles (UTC-8.0)
Plans Departing 56
Arriving 40
Stats Elevation 5 ft / 2 m (AMSL)
Location 37.511735° -122.249386°
Runways 1
Magnetic Variation 13.421° E
Sunrise 2017-12-16 15:18:42 UTC / 2017-12-16 07:18:42 Local
Sunset 2017-12-17 00:53:39 UTC / 2017-12-16 16:53:39 Local
Advertisement - Login to hide

Runways

ID Width Length Bearing (true) Bearing (mag) Surface Threshold Offset Overrun Length
12 75 ft / 23 m 2,619 ft / 798 m 138.39° 124.97° Asphalt 0 ft / 0 m 299 ft / 91 m
30 75 ft / 23 m 2,619 ft / 798 m 318.40° 304.98° Asphalt 0 ft / 0 m 135 ft / 41 m

Map

Weather


0- 5 10 15 20 25 30 35+ Temperature / ° C

Clouds and Precipitation
Forecast for 2017-12-17 06:00 UTC. Updated an hour ago

Ground ~20,000 ft ~40,000 ft Winds

METAR

KSQL 170615Z AUTO 35013G17KT 10SM CLR 14/M03 A2997 RMK AO2

TAF

Not found

Frequencies

Unicom 119.00 MHz San Carlos CTAF
Tower 119.00 MHz San Carlos Tower
Departure 135.65 MHz Norcal Departure
Ground 121.60 MHz San Carlos Ground
Approach 133.95 MHz Norcal Approach
Warning: Do not use this data for real-world aviation or navigation. No guarantee of current accuracy is given.